EPRA

Details ICAO EPRA (QXR)
Name RADOM SADKOW
Region Poland
Timezone Europe/Warsaw (UTC+1.0)
Plans Departing 23
Arriving 21
Stats Elevation 623 ft / 190 m (AMSL)
Location 51.388880° 21.211661°
Runways 1
Magnetic Variation 5.737° E
Sunrise 2017-12-14 06:34:20 UTC / 2017-12-14 07:34:20 Local
Sunset 2017-12-14 14:28:05 UTC / 2017-12-14 15:28:05 Local
Advertisement - Login to hide

Runways

ID Width Length Bearing (true) Bearing (mag) Surface Threshold Offset Overrun Length
07 197 ft / 60 m 6,569 ft / 2,002 m 74.99° 69.25° Concrete 0 ft / 0 m 0 ft / 0 m
25 197 ft / 60 m 6,569 ft / 2,002 m 255.01° 249.27° Concrete 0 ft / 0 m 0 ft / 0 m

Map

Weather


0- 5 10 15 20 25 30 35+ Temperature / ° C

Clouds and Precipitation
Forecast for 2017-12-15 00:00 UTC. Updated 5 minutes ago

Ground ~20,000 ft ~40,000 ft Winds

METAR

EPRA 141900Z 25014KT CAVOK 05/M01 Q0998

TAF

Not found

Frequencies

Tower 131.10 MHz RADOM TOWER
Approach 128.68 MHz RADOM APPROACH
Warning: Do not use this data for real-world aviation or navigation. No guarantee of current accuracy is given.